createdAt,value
2019-04-30T00:00:53.028Z,102247.65
2019-04-30T00:01:55.888Z,102247.77
2019-04-30T00:02:55.185Z,102247.08
2019-04-30T00:03:55.778Z,102246.94
2019-04-30T00:04:55.401Z,102246.69
2019-04-30T00:05:57.467Z,102246.17
2019-04-30T00:06:55.975Z,102245.78
2019-04-30T00:07:58.502Z,102244.76
2019-04-30T00:08:57.715Z,102244.53
2019-04-30T00:09:57.726Z,102244.28
2019-04-30T00:10:57.867Z,102244.28
2019-04-30T00:12:01.245Z,102244.36
2019-04-30T00:12:59.038Z,102243.37
2019-04-30T00:14:00.380Z,102243.12
2019-04-30T00:15:00.763Z,102242.52
2019-04-30T00:16:01.712Z,102241.88
2019-04-30T00:17:00.702Z,102241.28
2019-04-30T00:18:02.147Z,102241.02
2019-04-30T00:19:02.624Z,102241.10
2019-04-30T00:20:03.069Z,102240.79
2019-04-30T00:21:05.263Z,102240.48
2019-04-30T00:22:02.881Z,102240.56
2019-04-30T00:23:05.147Z,102240.22
2019-04-30T00:24:06.229Z,102239.73
2019-04-30T00:25:05.351Z,102239.48
2019-04-30T00:26:10.147Z,102239.82
2019-04-30T00:27:05.513Z,102239.65
2019-04-30T00:28:08.684Z,102238.89
2019-04-30T00:29:06.308Z,102239.05
2019-04-30T00:30:09.137Z,102238.72
2019-04-30T00:30:16.250Z,102238.18
2019-04-30T00:31:23.763Z,102237.92
2019-04-30T00:32:17.181Z,102238.09
2019-04-30T00:33:22.032Z,102237.83
2019-04-30T00:34:17.959Z,102237.44
2019-04-30T00:35:19.770Z,102237.09
2019-04-30T00:36:18.766Z,102237.34
2019-04-30T00:37:20.208Z,102237.13
2019-04-30T00:38:20.728Z,102236.53
2019-04-30T00:39:21.133Z,102236.19
2019-04-30T00:40:25.700Z,102236.19
2019-04-30T00:41:21.207Z,102235.96
2019-04-30T00:42:24.152Z,102235.70
2019-04-30T00:43:22.558Z,102234.94
2019-04-30T00:44:28.222Z,102234.52
2019-04-30T00:45:25.178Z,102233.95
2019-04-30T00:46:27.275Z,102233.78
2019-04-30T00:47:25.683Z,102233.70
2019-04-30T00:48:29.686Z,102232.55
2019-04-30T00:49:26.663Z,102232.45
2019-04-30T00:50:29.050Z,102232.03
2019-04-30T00:51:26.338Z,102231.44
2019-04-30T00:52:29.583Z,102231.60
2019-04-30T00:53:27.042Z,102231.20
2019-04-30T00:54:30.846Z,102230.78
2019-04-30T00:55:27.903Z,102230.44
2019-04-30T00:56:29.537Z,102229.95
2019-04-30T00:57:29.996Z,102229.70
2019-04-30T00:58:30.501Z,102229.22
2019-04-30T00:59:29.877Z,102228.80
2019-04-30T01:00:31.405Z,102228.15
2019-04-30T01:01:31.955Z,102227.98
2019-04-30T01:02:32.614Z,102227.50
2019-04-30T01:03:34.946Z,102226.81
2019-04-30T01:04:32.463Z,102226.25
2019-04-30T01:05:35.358Z,102225.93
2019-04-30T01:06:34.978Z,102224.83
2019-04-30T01:07:35.397Z,102224.26
2019-04-30T01:08:35.815Z,102223.69
2019-04-30T01:09:35.389Z,102223.13
2019-04-30T01:10:35.488Z,102222.78
2019-04-30T01:11:39.853Z,102222.12
2019-04-30T01:12:43.897Z,102221.53
2019-04-30T01:13:38.905Z,102221.11
2019-04-30T01:14:38.640Z,102221.11
2019-04-30T01:15:39.080Z,102220.55
2019-04-30T01:16:39.521Z,102219.53
2019-04-30T01:17:40.847Z,102219.36
2019-04-30T01:18:39.957Z,102218.42
2019-04-30T01:19:41.438Z,102217.70
2019-04-30T01:20:41.947Z,102216.77
2019-04-30T01:21:46.932Z,102216.77
2019-04-30T01:22:42.297Z,102216.17
2019-04-30T01:23:51.724Z,102215.52
2019-04-30T01:24:43.255Z,102214.92
2019-04-30T01:25:49.907Z,102214.84
2019-04-30T01:26:44.590Z,102214.61
2019-04-30T01:27:46.753Z,102214.09
2019-04-30T01:28:45.432Z,102214.44
2019-04-30T01:29:48.633Z,102213.45
2019-04-30T01:30:46.343Z,102213.45
2019-04-30T01:31:48.869Z,102213.03
2019-04-30T01:32:50.255Z,102212.59
2019-04-30T01:33:48.940Z,102211.78
2019-04-30T01:34:49.858Z,102211.19
2019-04-30T01:35:48.891Z,102211.02
2019-04-30T01:36:52.198Z,102210.28
2019-04-30T01:37:49.338Z,102209.40
2019-04-30T01:38:52.439Z,102208.82
2019-04-30T01:39:50.353Z,102208.67
2019-04-30T01:40:51.816Z,102208.19
2019-04-30T01:41:52.408Z,102207.88
2019-04-30T01:42:52.806Z,102207.64
2019-04-30T01:43:53.303Z,102207.66
2019-04-30T01:44:54.177Z,102207.94
2019-04-30T01:45:02.710Z,102209.65
2019-04-30T01:46:09.370Z,102209.23
2019-04-30T01:47:03.505Z,102209.31
2019-04-30T01:48:09.270Z,102209.31
2019-04-30T01:49:04.872Z,102209.48
2019-04-30T01:50:06.496Z,102209.81
2019-04-30T01:51:08.856Z,102209.98
2019-04-30T01:52:06.429Z,102209.56
2019-04-30T01:53:11.435Z,102209.00
2019-04-30T01:54:09.246Z,102208.66
2019-04-30T01:55:08.549Z,102208.50
2019-04-30T01:56:09.184Z,102208.06
2019-04-30T01:57:10.835Z,102207.81
2019-04-30T01:58:09.714Z,102207.55
2019-04-30T01:59:11.129Z,102207.50
2019-04-30T02:00:11.651Z,102207.24
2019-04-30T02:01:12.163Z,102206.81
2019-04-30T02:02:12.655Z,102206.77
2019-04-30T02:03:13.040Z,102207.02
2019-04-30T02:04:13.485Z,102207.18
2019-04-30T02:05:13.860Z,102206.92
2019-04-30T02:06:14.315Z,102207.09
2019-04-30T02:07:14.751Z,102207.09
2019-04-30T02:08:15.351Z,102206.67
2019-04-30T02:09:16.047Z,102207.17
2019-04-30T02:10:18.481Z,102207.45
2019-04-30T02:11:15.880Z,102207.70
2019-04-30T02:12:19.711Z,102207.95
2019-04-30T02:13:18.896Z,102207.88
2019-04-30T02:14:18.970Z,102207.89
2019-04-30T02:15:19.198Z,102208.74
2019-04-30T02:16:20.991Z,102209.41
2019-04-30T02:17:19.353Z,102209.41
2019-04-30T02:18:19.677Z,102209.58
2019-04-30T02:19:21.161Z,102210.18
2019-04-30T02:20:21.652Z,102210.18
2019-04-30T02:21:22.015Z,102210.00
2019-04-30T02:22:22.461Z,102210.59
2019-04-30T02:23:22.849Z,102210.37
2019-04-30T02:24:23.230Z,102210.45
2019-04-30T02:25:23.598Z,102210.64
2019-04-30T02:26:23.998Z,102210.38
2019-04-30T02:27:24.376Z,102210.31
2019-04-30T02:28:25.260Z,102210.59
2019-04-30T02:29:24.703Z,102210.28
2019-04-30T02:30:26.337Z,102210.89
2019-04-30T02:31:26.756Z,102210.66
2019-04-30T02:32:30.195Z,102210.56
2019-04-30T02:33:27.113Z,102210.67
2019-04-30T02:34:30.308Z,102211.12
2019-04-30T02:35:28.852Z,102211.39
2019-04-30T02:36:29.919Z,102211.05
2019-04-30T02:37:30.130Z,102211.16
2019-04-30T02:38:30.248Z,102211.24
2019-04-30T02:39:30.387Z,102211.23
2019-04-30T02:40:31.834Z,102211.27
2019-04-30T02:41:32.258Z,102211.68
2019-04-30T02:42:32.686Z,102211.37
2019-04-30T02:43:33.235Z,102211.28
2019-04-30T02:44:33.710Z,102211.53
2019-04-30T02:45:34.127Z,102211.72
2019-04-30T02:45:42.672Z,102219.63
2019-04-30T02:46:44.018Z,102219.06
2019-04-30T02:47:44.638Z,102218.63
2019-04-30T02:48:45.643Z,102218.55
2019-04-30T02:49:46.035Z,102218.12
2019-04-30T02:50:49.006Z,102217.64
2019-04-30T02:51:45.931Z,102216.56
2019-04-30T02:52:50.462Z,102216.08
2019-04-30T02:53:47.174Z,102215.75
2019-04-30T02:54:49.956Z,102214.93
2019-04-30T02:55:49.942Z,102214.53
2019-04-30T02:56:50.689Z,102214.19
2019-04-30T02:57:49.912Z,102213.36
2019-04-30T02:58:50.612Z,102212.94
2019-04-30T02:59:50.365Z,102212.52
2019-04-30T03:00:51.785Z,102212.34
2019-04-30T03:01:52.218Z,102212.01
2019-04-30T03:02:52.747Z,102211.92
2019-04-30T03:03:53.168Z,102211.77
2019-04-30T03:04:53.665Z,102212.02
2019-04-30T03:05:54.163Z,102211.84
2019-04-30T03:06:54.517Z,102211.84
2019-04-30T03:07:54.934Z,102211.52
2019-04-30T03:08:55.431Z,102211.25
2019-04-30T03:09:56.050Z,102211.00
2019-04-30T03:10:56.465Z,102211.28
2019-04-30T03:11:59.944Z,102211.02
2019-04-30T03:12:56.354Z,102211.19
2019-04-30T03:13:59.290Z,102210.59
2019-04-30T03:15:00.261Z,102209.92
2019-04-30T03:15:59.345Z,102209.75
2019-04-30T03:17:00.098Z,102209.16
2019-04-30T03:18:00.641Z,102209.00
2019-04-30T03:19:00.148Z,102208.75
2019-04-30T03:20:03.549Z,102208.41
2019-04-30T03:21:01.248Z,102207.56
2019-04-30T03:22:02.498Z,102206.89
2019-04-30T03:23:02.916Z,102206.22
2019-04-30T03:24:03.593Z,102206.10
2019-04-30T03:25:04.044Z,102205.93
2019-04-30T03:26:04.445Z,102205.68
2019-04-30T03:27:04.926Z,102205.09
2019-04-30T03:28:05.473Z,102205.02
2019-04-30T03:29:06.133Z,102204.23
2019-04-30T03:30:06.676Z,102203.98
2019-04-30T03:31:07.103Z,102203.73
2019-04-30T03:32:12.397Z,102203.70
2019-04-30T03:33:07.156Z,102203.28
2019-04-30T03:34:17.101Z,102203.37
2019-04-30T03:35:12.514Z,102203.59
2019-04-30T03:36:12.391Z,102204.10
2019-04-30T03:37:10.111Z,102203.88
2019-04-30T03:38:10.285Z,102204.10
2019-04-30T03:39:11.902Z,102204.05
2019-04-30T03:40:13.120Z,102204.22
2019-04-30T03:41:12.061Z,102204.47
2019-04-30T03:42:13.625Z,102204.88
2019-04-30T03:43:13.966Z,102204.62
2019-04-30T03:44:21.760Z,102204.82
2019-04-30T03:45:13.914Z,102204.08
2019-04-30T03:46:15.790Z,102204.02
2019-04-30T03:47:16.216Z,102203.92
2019-04-30T03:47:24.758Z,102200.52
2019-04-30T03:48:26.075Z,102200.35
2019-04-30T03:49:26.564Z,102200.19
2019-04-30T03:50:31.521Z,102200.35
2019-04-30T03:51:26.539Z,102200.61
2019-04-30T03:52:29.196Z,102201.00
2019-04-30T03:53:29.682Z,102200.50
2019-04-30T03:54:29.285Z,102200.75
2019-04-30T03:55:29.938Z,102201.01
2019-04-30T03:56:29.867Z,102200.67
2019-04-30T03:57:30.278Z,102200.75
2019-04-30T03:58:29.912Z,102200.95
2019-04-30T03:59:31.304Z,102201.28
2019-04-30T04:00:31.715Z,102201.30
2019-04-30T04:01:32.241Z,102202.33
2019-04-30T04:02:32.712Z,102202.61
2019-04-30T04:03:33.167Z,102203.27
2019-04-30T04:04:33.689Z,102203.37
2019-04-30T04:05:34.193Z,102204.05
2019-04-30T04:06:34.897Z,102205.17
2019-04-30T04:07:35.432Z,102205.16
2019-04-30T04:08:35.893Z,102205.78
2019-04-30T04:09:36.628Z,102206.03
2019-04-30T04:10:37.529Z,102205.87
2019-04-30T04:11:39.625Z,102205.27
2019-04-30T04:12:39.544Z,102205.02
2019-04-30T04:13:40.057Z,102204.53
2019-04-30T04:14:39.424Z,102204.61
2019-04-30T04:15:39.906Z,102204.13
2019-04-30T04:16:41.197Z,102203.91
2019-04-30T04:17:40.338Z,102203.30
2019-04-30T04:18:41.772Z,102203.33
2019-04-30T04:19:42.142Z,102203.09
2019-04-30T04:20:42.951Z,102202.66
2019-04-30T04:21:42.242Z,102202.34
2019-04-30T04:22:42.645Z,102202.11
2019-04-30T04:23:44.209Z,102202.20
2019-04-30T04:24:44.737Z,102202.27
2019-04-30T04:25:45.455Z,102202.05
2019-04-30T04:26:46.041Z,102201.55
2019-04-30T04:27:46.496Z,102200.70
2019-04-30T04:28:49.396Z,102199.77
2019-04-30T04:29:46.321Z,102199.54
2019-04-30T04:30:50.531Z,102200.22
2019-04-30T04:31:50.148Z,102199.87
2019-04-30T04:32:50.158Z,102198.86
2019-04-30T04:33:52.293Z,102198.75
2019-04-30T04:34:50.514Z,102198.42
2019-04-30T04:35:49.889Z,102198.23
2019-04-30T04:36:50.715Z,102197.81
2019-04-30T04:37:50.395Z,102197.62
2019-04-30T04:38:51.810Z,102197.77
2019-04-30T04:39:52.247Z,102197.69
2019-04-30T04:40:52.904Z,102197.25
2019-04-30T04:41:53.604Z,102196.98
2019-04-30T04:42:54.099Z,102197.04
2019-04-30T04:43:54.490Z,102197.44
2019-04-30T04:44:54.966Z,102196.85
2019-04-30T04:45:55.465Z,102197.03
2019-04-30T04:46:56.068Z,102196.69
2019-04-30T04:47:56.503Z,102196.92
2019-04-30T04:48:59.391Z,102196.58
2019-04-30T04:49:56.440Z,102196.67
2019-04-30T04:50:05.960Z,102197.91
2019-04-30T04:51:10.865Z,102197.52
2019-04-30T04:52:06.654Z,102197.01
2019-04-30T04:53:11.286Z,102196.67
2019-04-30T04:54:10.175Z,102195.91
2019-04-30T04:55:09.998Z,102196.00
2019-04-30T04:56:10.069Z,102196.39
2019-04-30T04:57:16.966Z,102196.48
2019-04-30T04:58:12.732Z,102196.80
2019-04-30T04:59:10.478Z,102196.63
2019-04-30T05:00:11.033Z,102196.94
2019-04-30T05:01:13.781Z,102197.11
2019-04-30T05:02:13.153Z,102197.54
2019-04-30T05:03:13.650Z,102197.45
2019-04-30T05:04:14.297Z,102197.39
2019-04-30T05:05:14.699Z,102198.12
2019-04-30T05:06:15.675Z,102198.46
2019-04-30T05:07:16.093Z,102198.46
2019-04-30T05:08:18.479Z,102197.95
2019-04-30T05:09:16.011Z,102198.47
2019-04-30T05:10:19.233Z,102198.78
2019-04-30T05:11:16.982Z,102198.95
2019-04-30T05:12:18.583Z,102199.61
2019-04-30T05:13:19.237Z,102199.34
2019-04-30T05:14:19.108Z,102199.06
2019-04-30T05:15:19.563Z,102199.13
2019-04-30T05:16:19.519Z,102199.11
2019-04-30T05:17:21.019Z,102199.27
2019-04-30T05:18:22.806Z,102199.84
2019-04-30T05:19:21.080Z,102199.73
2019-04-30T05:20:22.841Z,102199.97
2019-04-30T05:21:23.336Z,102199.67
2019-04-30T05:22:23.936Z,102199.65
2019-04-30T05:23:24.668Z,102199.30
2019-04-30T05:24:25.575Z,102199.45
2019-04-30T05:25:25.990Z,102199.33
2019-04-30T05:26:28.579Z,102199.39
2019-04-30T05:27:25.922Z,102199.04
2019-04-30T05:28:27.379Z,102199.45
2019-04-30T05:29:28.972Z,102199.31
2019-04-30T05:30:29.369Z,102199.55
2019-04-30T05:31:28.979Z,102200.30
2019-04-30T05:32:29.337Z,102200.02
2019-04-30T05:33:29.032Z,102200.22
2019-04-30T05:34:30.580Z,102200.30
2019-04-30T05:35:31.384Z,102200.20
2019-04-30T05:36:31.911Z,102200.23
2019-04-30T05:37:32.583Z,102199.69
2019-04-30T05:38:32.956Z,102199.50
2019-04-30T05:39:33.448Z,102199.72
2019-04-30T05:40:34.186Z,102199.76
2019-04-30T05:41:33.621Z,102199.80
2019-04-30T05:42:35.085Z,102199.94
2019-04-30T05:43:35.907Z,102200.00
2019-04-30T05:44:36.448Z,102199.87
2019-04-30T05:45:38.896Z,102200.19
2019-04-30T05:46:36.384Z,102200.06
2019-04-30T05:47:38.890Z,102200.44
2019-04-30T05:48:37.235Z,102200.52
2019-04-30T05:49:38.953Z,102200.95
2019-04-30T05:50:39.153Z,102201.93
2019-04-30T05:51:38.877Z,102202.20
2019-04-30T05:52:39.725Z,102202.64
2019-04-30T05:53:39.531Z,102203.19
2019-04-30T05:54:39.753Z,102203.72
2019-04-30T05:55:41.687Z,102204.39
2019-04-30T05:55:50.233Z,102216.00
2019-04-30T05:56:51.566Z,102215.07
2019-04-30T05:57:56.236Z,102215.22
2019-04-30T05:58:51.904Z,102214.80
2019-04-30T05:59:53.308Z,102214.61
2019-04-30T06:00:53.683Z,102214.64
2019-04-30T06:01:53.975Z,102214.67
2019-04-30T06:02:54.375Z,102215.14
2019-04-30T06:03:54.955Z,102215.20
2019-04-30T06:04:55.346Z,102215.03
2019-04-30T06:05:56.114Z,102214.52
2019-04-30T06:06:58.629Z,102214.84
2019-04-30T06:07:56.078Z,102214.46
2019-04-30T06:09:06.166Z,102214.71
2019-04-30T06:09:59.586Z,102215.27
2019-04-30T06:10:59.752Z,102215.39
2019-04-30T06:11:59.121Z,102215.97
2019-04-30T06:12:59.459Z,102216.48
2019-04-30T06:13:59.701Z,102217.09
2019-04-30T06:15:01.170Z,102217.34
2019-04-30T06:16:01.726Z,102218.23
2019-04-30T06:17:02.196Z,102218.32
2019-04-30T06:18:10.843Z,102218.87
2019-04-30T06:19:02.552Z,102219.10
2019-04-30T06:20:15.554Z,102219.84
2019-04-30T06:21:03.663Z,102220.00
2019-04-30T06:22:08.065Z,102220.47
2019-04-30T06:23:04.147Z,102221.13
2019-04-30T06:24:05.701Z,102221.00
2019-04-30T06:25:06.301Z,102220.81
2019-04-30T06:26:09.588Z,102220.73
2019-04-30T06:27:06.241Z,102220.55
2019-04-30T06:28:09.594Z,102220.38
2019-04-30T06:29:09.146Z,102220.37
2019-04-30T06:30:09.712Z,102219.71
2019-04-30T06:31:09.104Z,102220.11
2019-04-30T06:32:09.325Z,102219.77
2019-04-30T06:33:11.746Z,102219.63
2019-04-30T06:34:10.223Z,102219.81
2019-04-30T06:35:11.795Z,102219.97
2019-04-30T06:36:12.142Z,102219.67
2019-04-30T06:37:12.598Z,102219.73
2019-04-30T06:38:13.319Z,102218.73
2019-04-30T06:39:13.823Z,102219.09
2019-04-30T06:40:14.237Z,102219.14
2019-04-30T06:41:14.815Z,102219.08
2019-04-30T06:42:15.594Z,102218.83
2019-04-30T06:43:15.932Z,102218.55
2019-04-30T06:44:16.357Z,102218.43
2019-04-30T06:45:18.993Z,102218.36
2019-04-30T06:46:18.564Z,102217.88
2019-04-30T06:47:20.011Z,102217.58
2019-04-30T06:48:19.759Z,102217.49
2019-04-30T06:49:19.489Z,102216.97
2019-04-30T06:50:19.423Z,102216.16
2019-04-30T06:51:19.399Z,102215.93
2019-04-30T06:52:23.546Z,102215.48
2019-04-30T06:53:20.601Z,102214.88
2019-04-30T06:54:22.044Z,102214.17
2019-04-30T06:55:22.535Z,102213.98
2019-04-30T06:56:23.057Z,102213.06
2019-04-30T06:56:32.103Z,102207.78
2019-04-30T06:57:33.751Z,102205.28
2019-04-30T06:58:34.309Z,102205.22
2019-04-30T06:59:34.922Z,102205.20
2019-04-30T07:00:35.641Z,102205.44
2019-04-30T07:01:34.846Z,102205.00
2019-04-30T07:02:36.344Z,102204.38
2019-04-30T07:03:36.730Z,102203.64
2019-04-30T07:04:37.245Z,102203.50
2019-04-30T07:05:38.927Z,102202.91
2019-04-30T07:06:43.935Z,102202.36
2019-04-30T07:07:41.525Z,102202.17
2019-04-30T07:08:42.469Z,102200.69
2019-04-30T07:09:51.461Z,102200.38
2019-04-30T07:10:41.408Z,102199.83
2019-04-30T07:11:40.063Z,102200.15
2019-04-30T07:12:42.134Z,102199.71
2019-04-30T07:13:41.630Z,102198.84
2019-04-30T07:14:42.088Z,102198.66
2019-04-30T07:15:42.745Z,102197.65
2019-04-30T07:16:43.186Z,102197.13
2019-04-30T07:17:43.825Z,102196.34
2019-04-30T07:18:44.329Z,102196.35
2019-04-30T07:19:55.700Z,102195.41
2019-04-30T07:20:44.194Z,102194.89
2019-04-30T07:21:45.792Z,102194.87
2019-04-30T07:22:52.524Z,102194.48
2019-04-30T07:23:48.498Z,102194.64
2019-04-30T07:24:46.996Z,102195.06
2019-04-30T07:25:51.379Z,102194.95
2019-04-30T07:26:49.011Z,102195.00
2019-04-30T07:27:50.550Z,102195.34
2019-04-30T07:28:54.237Z,102195.19
2019-04-30T07:29:49.675Z,102194.96
2019-04-30T07:31:07.180Z,102195.18
2019-04-30T07:31:51.755Z,102195.77
2019-04-30T07:32:51.243Z,102196.06
2019-04-30T07:33:53.870Z,102196.88
2019-04-30T07:34:52.136Z,102197.27
2019-04-30T07:35:53.478Z,102197.84
2019-04-30T07:37:10.919Z,102198.92
2019-04-30T07:37:54.683Z,102199.91
2019-04-30T07:38:56.668Z,102199.84
2019-04-30T07:39:54.683Z,102200.09
2019-04-30T07:40:55.907Z,102200.70
2019-04-30T07:41:56.389Z,102201.35
2019-04-30T07:42:58.969Z,102202.38
2019-04-30T07:43:56.243Z,102202.74
2019-04-30T07:45:00.414Z,102203.48
2019-04-30T07:45:59.698Z,102203.07
2019-04-30T07:46:59.396Z,102203.73
2019-04-30T07:47:59.371Z,102203.19
2019-04-30T07:49:00.006Z,102202.77
2019-04-30T07:50:00.642Z,102202.46
2019-04-30T07:51:00.033Z,102201.90
2019-04-30T07:52:02.455Z,102202.09
2019-04-30T07:53:05.519Z,102201.98
2019-04-30T07:54:01.397Z,102201.58
2019-04-30T07:55:02.792Z,102201.48
2019-04-30T07:56:21.146Z,102200.80
2019-04-30T07:57:02.879Z,102200.36
2019-04-30T07:58:03.200Z,102200.05
2019-04-30T07:59:04.647Z,102199.73
2019-04-30T08:00:05.328Z,102199.75
2019-04-30T08:01:06.266Z,102199.87
2019-04-30T08:02:13.639Z,102199.36
2019-04-30T08:03:06.896Z,102199.23
2019-04-30T08:04:08.688Z,102199.45
2019-04-30T08:05:10.340Z,102199.27
2019-04-30T08:06:10.101Z,102199.10
2019-04-30T08:07:09.778Z,102198.77
2019-04-30T08:08:20.822Z,102197.95
2019-04-30T08:09:10.281Z,102198.14
2019-04-30T08:09:19.636Z,102196.49
2019-04-30T08:10:19.077Z,102198.38
2019-04-30T08:11:26.079Z,102198.06
2019-04-30T08:12:26.103Z,102198.22
2019-04-30T08:13:21.844Z,102197.66
2019-04-30T08:14:21.200Z,102197.92
2019-04-30T08:15:21.366Z,102196.94
2019-04-30T08:16:22.854Z,102196.75
2019-04-30T08:17:23.261Z,102196.86
2019-04-30T08:18:23.693Z,102197.00
2019-04-30T08:19:24.066Z,102196.83
2019-04-30T08:20:24.639Z,102197.41
2019-04-30T08:21:26.401Z,102197.56
2019-04-30T08:22:25.929Z,102197.05
2019-04-30T08:23:34.997Z,102196.78
2019-04-30T08:24:26.328Z,102196.50
2019-04-30T08:25:29.097Z,102196.39
2019-04-30T08:26:28.716Z,102196.70
2019-04-30T08:27:29.640Z,102196.88
2019-04-30T08:28:30.400Z,102196.75
2019-04-30T08:29:29.526Z,102196.78
2019-04-30T08:30:30.125Z,102197.48
2019-04-30T08:31:30.416Z,102197.42
2019-04-30T08:32:31.805Z,102197.60
2019-04-30T08:33:32.337Z,102197.06
2019-04-30T08:34:32.875Z,102197.38
2019-04-30T08:35:33.422Z,102197.11
2019-04-30T08:36:33.884Z,102197.20
2019-04-30T08:37:34.268Z,102197.05
2019-04-30T08:38:35.180Z,102197.30
2019-04-30T08:39:34.610Z,102197.39
2019-04-30T08:40:36.109Z,102197.58
2019-04-30T08:41:36.568Z,102197.41
2019-04-30T08:42:38.429Z,102197.30
2019-04-30T08:43:36.071Z,102197.22
2019-04-30T08:44:39.511Z,102197.01
2019-04-30T08:45:38.589Z,102196.85
2019-04-30T08:46:38.750Z,102196.72
2019-04-30T08:47:39.306Z,102196.58
2019-04-30T08:48:47.845Z,102197.00
2019-04-30T08:49:40.444Z,102197.20
2019-04-30T08:50:39.734Z,102197.41
2019-04-30T08:51:40.137Z,102197.27
2019-04-30T08:52:40.063Z,102197.13
2019-04-30T08:53:41.589Z,102196.95
2019-04-30T08:54:40.944Z,102196.60
2019-04-30T08:55:42.443Z,102196.63
2019-04-30T08:56:43.016Z,102196.30
2019-04-30T08:57:43.682Z,102196.18
2019-04-30T08:58:44.039Z,102195.93
2019-04-30T08:59:44.538Z,102195.55
2019-04-30T09:00:45.459Z,102195.34
2019-04-30T09:01:46.006Z,102195.14
2019-04-30T09:02:46.525Z,102194.59
2019-04-30T09:03:46.080Z,102194.30
2019-04-30T09:04:49.397Z,102193.75
2019-04-30T09:05:47.256Z,102193.47
2019-04-30T09:06:49.240Z,102193.17
2019-04-30T09:07:48.651Z,102192.83
2019-04-30T09:08:49.070Z,102192.20
2019-04-30T09:09:49.182Z,102192.75
2019-04-30T09:10:50.444Z,102192.47
2019-04-30T09:11:55.381Z,102192.40
2019-04-30T09:12:52.014Z,102191.83
2019-04-30T09:13:51.484Z,102191.73
2019-04-30T09:14:53.118Z,102191.72
2019-04-30T09:15:02.653Z,102191.23
2019-04-30T09:16:04.503Z,102189.48
2019-04-30T09:17:05.017Z,102188.68
2019-04-30T09:18:08.216Z,102189.19
2019-04-30T09:19:04.731Z,102189.23
2019-04-30T09:20:06.329Z,102189.31
2019-04-30T09:21:08.848Z,102189.56
2019-04-30T09:22:14.362Z,102189.44
2019-04-30T09:23:06.363Z,102189.08
2019-04-30T09:24:09.525Z,102189.53
2019-04-30T09:25:09.222Z,102189.30
2019-04-30T09:26:08.675Z,102189.42
2019-04-30T09:27:10.655Z,102188.95
2019-04-30T09:28:08.900Z,102188.63
2019-04-30T09:29:10.489Z,102188.94
2019-04-30T09:30:10.545Z,102189.27
2019-04-30T09:31:10.054Z,102189.58
2019-04-30T09:32:11.553Z,102189.51
2019-04-30T09:33:12.034Z,102189.64
2019-04-30T09:34:17.018Z,102190.09
2019-04-30T09:35:12.207Z,102190.20
2019-04-30T09:36:13.751Z,102190.30
2019-04-30T09:37:14.337Z,102190.00
2019-04-30T09:38:14.754Z,102190.17
2019-04-30T09:39:15.251Z,102189.84
2019-04-30T09:40:18.534Z,102190.27
2019-04-30T09:41:15.898Z,102190.49
2019-04-30T09:42:19.405Z,102189.98
2019-04-30T09:43:18.802Z,102190.16
2019-04-30T09:44:19.448Z,102190.20
2019-04-30T09:45:18.736Z,102190.00
2019-04-30T09:46:26.312Z,102189.75
2019-04-30T09:47:20.039Z,102190.13
2019-04-30T09:48:19.204Z,102190.22
2019-04-30T09:49:19.524Z,102190.39
2019-04-30T09:50:19.890Z,102190.17
2019-04-30T09:51:24.601Z,102190.02
2019-04-30T09:52:21.874Z,102189.36
2019-04-30T09:53:22.160Z,102188.55
2019-04-30T09:54:24.127Z,102187.91
2019-04-30T09:55:23.343Z,102187.36
2019-04-30T09:56:24.825Z,102187.36
2019-04-30T09:57:25.253Z,102187.10
2019-04-30T09:58:25.977Z,102186.96
2019-04-30T09:59:26.393Z,102186.15
2019-04-30T10:00:26.835Z,102185.41
2019-04-30T10:01:27.837Z,102185.32
2019-04-30T10:02:29.052Z,102185.02
2019-04-30T10:03:30.263Z,102184.39
2019-04-30T10:04:30.348Z,102183.63
2019-04-30T10:05:29.294Z,102183.27
2019-04-30T10:06:38.933Z,102183.16
2019-04-30T10:07:29.725Z,102182.22
2019-04-30T10:08:31.756Z,102181.66
2019-04-30T10:09:30.870Z,102181.00
2019-04-30T10:10:32.387Z,102179.84
2019-04-30T10:11:32.949Z,102179.19
2019-04-30T10:12:33.443Z,102178.22
2019-04-30T10:13:34.176Z,102176.75
2019-04-30T10:14:33.218Z,102176.09
2019-04-30T10:15:34.742Z,102175.30
2019-04-30T10:16:35.279Z,102173.95
2019-04-30T10:17:35.699Z,102173.16
2019-04-30T10:18:36.177Z,102172.02
2019-04-30T10:19:36.839Z,102170.75
2019-04-30T10:20:37.245Z,102170.47
2019-04-30T10:20:45.777Z,102159.70
2019-04-30T10:21:48.984Z,102159.94
2019-04-30T10:22:46.437Z,102159.84
2019-04-30T10:23:49.821Z,102159.77
2019-04-30T10:24:49.441Z,102159.41
2019-04-30T10:25:47.973Z,102158.94
2019-04-30T10:26:49.372Z,102158.73
2019-04-30T10:27:49.936Z,102158.14
2019-04-30T10:28:49.161Z,102157.23
2019-04-30T10:29:50.670Z,102156.28
2019-04-30T10:30:51.146Z,102155.98
2019-04-30T10:31:51.516Z,102155.27
2019-04-30T10:32:52.468Z,102154.66
2019-04-30T10:33:52.839Z,102154.23
2019-04-30T10:34:53.340Z,102153.49
2019-04-30T10:35:54.253Z,102152.67
2019-04-30T10:36:53.781Z,102151.68
2019-04-30T10:37:55.205Z,102150.73
2019-04-30T10:38:55.598Z,102150.00
2019-04-30T10:39:56.486Z,102149.52
2019-04-30T10:40:58.727Z,102148.52
2019-04-30T10:41:56.489Z,102147.52
2019-04-30T10:42:58.666Z,102146.70
2019-04-30T10:43:59.122Z,102145.45
2019-04-30T10:45:00.036Z,102144.36
2019-04-30T10:45:58.876Z,102143.62
2019-04-30T10:47:00.563Z,102142.69
2019-04-30T10:48:01.030Z,102141.61
2019-04-30T10:49:01.552Z,102140.79
2019-04-30T10:50:01.897Z,102139.75
2019-04-30T10:51:02.898Z,102138.93
2019-04-30T10:52:02.491Z,102137.34
2019-04-30T10:53:03.141Z,102136.55
2019-04-30T10:54:03.677Z,102135.50
2019-04-30T10:55:04.655Z,102134.40
2019-04-30T10:56:03.756Z,102133.38
2019-04-30T10:57:05.315Z,102131.81
2019-04-30T10:58:05.895Z,102130.84
2019-04-30T10:59:06.289Z,102129.78
2019-04-30T11:00:08.327Z,102129.48
2019-04-30T11:01:06.548Z,102127.96
2019-04-30T11:02:09.088Z,102127.28
2019-04-30T11:03:17.298Z,102126.58
2019-04-30T11:04:07.938Z,102125.36
2019-04-30T11:05:08.423Z,102124.73
2019-04-30T11:06:09.455Z,102123.77
2019-04-30T11:07:10.189Z,102123.95
2019-04-30T11:08:11.003Z,102123.82
2019-04-30T11:09:11.011Z,102123.27
2019-04-30T11:10:11.504Z,102122.51
2019-04-30T11:11:12.232Z,102121.21
2019-04-30T11:12:12.734Z,102120.72
2019-04-30T11:13:13.025Z,102119.69
2019-04-30T11:14:12.136Z,102119.47
2019-04-30T11:15:13.753Z,102119.09
2019-04-30T11:15:22.334Z,102114.20
2019-04-30T11:16:23.335Z,102104.87
2019-04-30T11:17:24.206Z,102105.06
2019-04-30T11:18:23.745Z,102104.52
2019-04-30T11:19:24.154Z,102105.08
2019-04-30T11:20:24.775Z,102104.55
2019-04-30T11:21:25.315Z,102104.25